Terminal Aerodrome Forecast
Issued by NWS

Home | Current Version | Previous Version | Text Only | Print | Product List | Glossary On
Versions: 1 2 3 4 5 6 7 8 9 10 11 12 13 14 15 16 17 18 19 20 21 22 23 24 25 26 27 28
000
FTUS43 KDLH 221731
TAFBRD
TAF
KBRD 221731Z 2218/2318 15007KT P6SM FEW130 SCT200
     FM222000 14006KT P6SM VCSH BKN045 OVC090
     FM222200 12005KT 4SM -SN BKN020 OVC070
     FM230000 11005KT 1 1/2SM -SN OVC010
      TEMPO 2304/2308 3/4SM -SN OVC010
     FM231200 VRB03KT P6SM OVC008
     FM231600 31007KT P6SM BKN045=

USA.gov is the U.S. government's official web portal to all federal, state and local government web resources and services.